createdAt,value
2019-05-09T00:00:25.661Z,99.90
2019-05-09T00:02:54.114Z,99.90
2019-05-09T00:05:24.835Z,99.90
2019-05-09T00:07:53.179Z,99.90
2019-05-09T00:10:35.233Z,99.90
2019-05-09T00:12:51.157Z,99.90
2019-05-09T00:15:19.690Z,99.90
2019-05-09T00:17:47.533Z,99.90
2019-05-09T00:20:40.286Z,99.90
2019-05-09T00:23:08.410Z,99.90
2019-05-09T00:25:36.302Z,99.90
2019-05-09T00:28:04.659Z,99.90
2019-05-09T00:30:50.659Z,99.90
2019-05-09T00:33:23.562Z,99.90
2019-05-09T00:35:53.418Z,99.90
2019-05-09T00:38:24.043Z,99.90
2019-05-09T00:40:58.405Z,99.90
2019-05-09T00:43:23.676Z,99.90
2019-05-09T00:46:10.492Z,99.90
2019-05-09T00:48:56.207Z,99.90
2019-05-09T00:51:24.106Z,99.90
2019-05-09T00:53:53.678Z,99.90
2019-05-09T00:56:23.754Z,99.90
2019-05-09T00:58:53.543Z,99.90
2019-05-09T01:01:21.186Z,99.90
2019-05-09T01:03:49.098Z,99.90
2019-05-09T01:06:17.220Z,99.90
2019-05-09T01:08:45.106Z,99.90
2019-05-09T01:11:15.497Z,99.90
2019-05-09T01:13:43.482Z,99.90
2019-05-09T01:16:13.446Z,99.90
2019-05-09T01:18:43.576Z,99.90
2019-05-09T01:21:13.199Z,99.90
2019-05-09T01:23:40.420Z,99.90
2019-05-09T01:26:08.262Z,99.90
2019-05-09T01:28:36.171Z,99.90
2019-05-09T01:31:04.342Z,99.90
2019-05-09T01:33:44.648Z,99.90
2019-05-09T01:36:14.427Z,99.90
2019-05-09T01:38:43.320Z,99.90
2019-05-09T01:41:26.276Z,99.90
2019-05-09T01:43:41.329Z,99.90
2019-05-09T01:46:09.118Z,99.90
2019-05-09T01:48:37.051Z,99.90
2019-05-09T01:51:04.858Z,99.90
2019-05-09T01:53:35.968Z,99.90
2019-05-09T01:56:04.147Z,99.90
2019-05-09T01:58:34.305Z,99.90
2019-05-09T02:01:03.765Z,99.90
2019-05-09T02:03:33.663Z,99.90
2019-05-09T02:06:03.278Z,99.90
2019-05-09T02:08:30.880Z,99.90
2019-05-09T02:10:58.993Z,99.90
2019-05-09T02:13:26.818Z,99.90
2019-05-09T02:16:03.451Z,99.90
2019-05-09T02:18:37.006Z,99.90
2019-05-09T02:21:04.883Z,99.90
2019-05-09T02:23:33.951Z,99.90
2019-05-09T02:26:03.952Z,99.90
2019-05-09T02:28:34.029Z,99.90
2019-05-09T02:31:04.780Z,99.90
2019-05-09T02:33:33.894Z,99.90
2019-05-09T02:36:01.867Z,99.90
2019-05-09T02:38:30.172Z,99.90
2019-05-09T02:40:59.468Z,99.90
2019-05-09T02:43:29.006Z,99.90
2019-05-09T02:46:03.881Z,99.90
2019-05-09T02:48:31.691Z,99.90
2019-05-09T02:51:00.512Z,99.90
2019-05-09T02:53:29.063Z,99.90
2019-05-09T02:55:58.482Z,99.90
2019-05-09T02:58:28.758Z,99.90
2019-05-09T03:01:18.705Z,99.90
2019-05-09T03:03:48.069Z,99.90
2019-05-09T03:06:15.299Z,99.90
2019-05-09T03:08:43.174Z,99.90
2019-05-09T03:11:11.096Z,99.90
2019-05-09T03:13:39.621Z,99.90
2019-05-09T03:16:12.011Z,99.90
2019-05-09T03:18:39.875Z,99.90
2019-05-09T03:21:29.744Z,99.90
2019-05-09T03:23:59.182Z,99.90
2019-05-09T03:26:30.699Z,99.90
2019-05-09T03:29:13.712Z,99.90
2019-05-09T03:31:41.848Z,99.90
2019-05-09T03:34:09.865Z,99.90
2019-05-09T03:36:38.562Z,99.90
2019-05-09T03:39:08.188Z,99.90
2019-05-09T03:41:36.238Z,99.90
2019-05-09T03:44:04.153Z,99.90
2019-05-09T03:46:48.325Z,99.90
2019-05-09T03:49:18.011Z,99.90
2019-05-09T03:51:48.101Z,99.90
2019-05-09T03:54:15.660Z,99.90
2019-05-09T03:56:47.996Z,99.90
2019-05-09T03:59:17.590Z,99.90
2019-05-09T04:01:47.808Z,99.90
2019-05-09T04:04:17.380Z,99.90
2019-05-09T04:06:44.803Z,99.90
2019-05-09T04:09:12.607Z,99.90
2019-05-09T04:11:40.457Z,99.90
2019-05-09T04:14:12.371Z,99.90
2019-05-09T04:16:40.189Z,99.90
2019-05-09T04:19:08.379Z,99.90
2019-05-09T04:21:38.320Z,99.90
2019-05-09T04:24:08.290Z,99.90
2019-05-09T04:26:41.556Z,99.90
2019-05-09T04:29:09.425Z,99.90
2019-05-09T04:31:38.381Z,99.90
2019-05-09T04:34:07.769Z,99.90
2019-05-09T04:36:38.947Z,99.90
2019-05-09T04:39:12.502Z,99.90
2019-05-09T04:41:38.527Z,99.90
2019-05-09T04:44:16.634Z,99.90
2019-05-09T04:46:37.772Z,99.90
2019-05-09T04:49:08.074Z,99.90
2019-05-09T04:51:39.134Z,99.90
2019-05-09T04:54:07.216Z,99.90
2019-05-09T04:56:43.615Z,99.90
2019-05-09T04:59:11.446Z,99.90
2019-05-09T05:01:58.105Z,99.90
2019-05-09T05:04:28.240Z,99.90
2019-05-09T05:06:57.863Z,99.90
2019-05-09T05:09:27.765Z,99.90
2019-05-09T05:11:57.686Z,99.90
2019-05-09T05:14:24.948Z,99.90
2019-05-09T05:16:55.395Z,99.90
2019-05-09T05:19:23.644Z,99.90
2019-05-09T05:21:51.509Z,99.90
2019-05-09T05:24:29.809Z,99.90
2019-05-09T05:26:58.013Z,99.90
2019-05-09T05:29:28.100Z,99.90
2019-05-09T05:31:57.583Z,99.90
2019-05-09T05:34:30.546Z,99.90
2019-05-09T05:36:58.373Z,99.90
2019-05-09T05:39:28.389Z,99.90
2019-05-09T05:41:57.650Z,99.90
2019-05-09T05:44:28.107Z,99.90
2019-05-09T05:47:20.736Z,99.90
2019-05-09T05:49:48.920Z,99.90
2019-05-09T05:52:18.498Z,99.90
2019-05-09T05:54:47.724Z,99.90
2019-05-09T05:57:17.724Z,99.90
2019-05-09T05:59:48.045Z,99.90
2019-05-09T06:02:17.614Z,99.90
2019-05-09T06:04:44.987Z,99.90
2019-05-09T06:07:12.805Z,99.90
2019-05-09T06:09:40.699Z,99.90
2019-05-09T06:12:08.598Z,99.90
2019-05-09T06:14:37.775Z,99.90
2019-05-09T06:17:07.849Z,99.90
2019-05-09T06:19:37.968Z,99.90
2019-05-09T06:22:05.343Z,99.90
2019-05-09T06:24:33.152Z,99.90
2019-05-09T06:27:00.970Z,99.90
2019-05-09T06:29:28.989Z,99.90
2019-05-09T06:31:58.440Z,99.90
2019-05-09T06:34:27.766Z,99.90
2019-05-09T06:36:58.430Z,99.90
2019-05-09T06:39:25.452Z,99.90
2019-05-09T06:41:53.302Z,99.90
2019-05-09T06:44:28.246Z,99.90
2019-05-09T06:47:15.431Z,99.90
2019-05-09T06:49:48.238Z,99.90
2019-05-09T06:52:17.420Z,99.90
2019-05-09T06:54:45.241Z,99.90
2019-05-09T06:57:42.233Z,99.90
2019-05-09T07:00:14.291Z,99.90
2019-05-09T07:02:49.723Z,99.90
2019-05-09T07:05:26.439Z,99.90
2019-05-09T07:08:01.815Z,99.90
2019-05-09T07:10:29.664Z,99.90
2019-05-09T07:12:58.484Z,99.90
2019-05-09T07:15:28.286Z,99.90
2019-05-09T07:17:57.526Z,99.90
2019-05-09T07:20:25.622Z,99.90
2019-05-09T07:22:54.959Z,99.90
2019-05-09T07:25:48.279Z,99.90
2019-05-09T07:28:17.964Z,99.90
2019-05-09T07:31:11.780Z,99.90
2019-05-09T07:33:53.260Z,99.90
2019-05-09T07:36:21.145Z,99.90
2019-05-09T07:38:49.004Z,99.90
2019-05-09T07:41:17.821Z,99.90
2019-05-09T07:43:47.804Z,99.90
2019-05-09T07:46:35.279Z,99.90
2019-05-09T07:49:07.862Z,99.90
2019-05-09T07:51:37.316Z,99.90
2019-05-09T07:54:20.736Z,99.90
2019-05-09T07:56:35.016Z,99.90
2019-05-09T07:59:04.599Z,99.90
2019-05-09T08:01:32.457Z,99.90
2019-05-09T08:04:00.351Z,99.90
2019-05-09T08:06:28.849Z,99.90
2019-05-09T08:08:58.125Z,99.90
2019-05-09T08:11:28.404Z,99.90
2019-05-09T08:13:57.535Z,99.90
2019-05-09T08:16:27.612Z,99.90
2019-05-09T08:18:57.831Z,99.90
2019-05-09T08:21:27.655Z,99.90
2019-05-09T08:23:57.672Z,99.90
2019-05-09T08:26:25.057Z,99.90
2019-05-09T08:28:53.002Z,99.90
2019-05-09T08:31:21.029Z,99.90
2019-05-09T08:33:48.857Z,99.90
2019-05-09T08:36:18.040Z,99.90
2019-05-09T08:38:47.792Z,99.90
2019-05-09T08:41:18.427Z,99.90
2019-05-09T08:43:48.179Z,99.90
2019-05-09T08:46:17.886Z,99.90
2019-05-09T08:48:48.282Z,99.90
2019-05-09T08:51:35.306Z,99.90
2019-05-09T08:53:57.817Z,99.90
2019-05-09T08:56:28.201Z,99.90
2019-05-09T08:59:01.556Z,99.90
2019-05-09T09:01:34.740Z,99.90
2019-05-09T09:03:57.462Z,99.90
2019-05-09T09:06:27.678Z,99.90
2019-05-09T09:08:54.568Z,99.90
2019-05-09T09:11:22.412Z,99.90
2019-05-09T09:13:50.283Z,99.90
2019-05-09T09:16:22.242Z,99.90
2019-05-09T09:18:48.264Z,99.90
2019-05-09T09:21:18.350Z,99.90
2019-05-09T09:23:49.687Z,99.90
2019-05-09T09:26:15.307Z,99.90
2019-05-09T09:28:43.140Z,99.90
2019-05-09T09:31:11.012Z,99.90
2019-05-09T09:33:39.019Z,99.90
2019-05-09T09:36:08.712Z,99.90
2019-05-09T09:38:37.521Z,99.90
2019-05-09T09:41:07.813Z,99.90
2019-05-09T09:43:35.263Z,99.90
2019-05-09T09:46:10.916Z,99.90
2019-05-09T09:48:32.745Z,99.90
2019-05-09T09:51:00.608Z,99.90
2019-05-09T09:53:28.772Z,99.90
2019-05-09T09:55:58.322Z,99.90
2019-05-09T09:58:27.362Z,99.90
2019-05-09T10:01:14.488Z,99.90
2019-05-09T10:03:42.376Z,99.90
2019-05-09T10:06:10.236Z,99.90
2019-05-09T10:08:39.645Z,99.90
2019-05-09T10:11:08.208Z,99.90
2019-05-09T10:13:37.488Z,99.90
2019-05-09T10:16:26.596Z,99.90
2019-05-09T10:18:53.126Z,99.90
2019-05-09T10:21:24.239Z,99.90
2019-05-09T10:24:02.284Z,99.90
2019-05-09T10:26:30.066Z,99.90
2019-05-09T10:28:57.904Z,99.90
2019-05-09T10:31:28.063Z,99.90
2019-05-09T10:33:57.832Z,99.90
2019-05-09T10:36:27.850Z,99.90
2019-05-09T10:38:58.221Z,99.90
2019-05-09T10:41:25.643Z,99.90
2019-05-09T10:44:18.058Z,99.90
2019-05-09T10:47:08.401Z,99.90
2019-05-09T10:49:35.092Z,99.90
2019-05-09T10:52:02.963Z,99.90
2019-05-09T10:54:30.854Z,99.90
2019-05-09T10:56:58.697Z,99.90
2019-05-09T10:59:26.564Z,99.90
2019-05-09T11:01:57.722Z,99.90
2019-05-09T11:04:24.664Z,99.80
2019-05-09T11:06:52.547Z,99.50
2019-05-09T11:09:20.674Z,98.90
2019-05-09T11:11:48.638Z,99.40
2019-05-09T11:14:32.781Z,99.70
2019-05-09T11:16:51.117Z,99.90
2019-05-09T11:19:18.406Z,99.90
2019-05-09T11:21:47.719Z,99.90
2019-05-09T11:24:15.090Z,99.90
2019-05-09T11:26:42.955Z,99.90
2019-05-09T11:29:10.798Z,99.90
2019-05-09T11:31:38.724Z,99.90
2019-05-09T11:34:08.917Z,99.90
2019-05-09T11:36:37.873Z,99.90
2019-05-09T11:39:10.280Z,99.90
2019-05-09T11:41:38.357Z,99.90
2019-05-09T11:44:08.256Z,99.90
2019-05-09T11:46:35.317Z,99.90
2019-05-09T11:49:03.788Z,99.90
2019-05-09T11:51:31.661Z,99.90
2019-05-09T11:53:59.502Z,99.90
2019-05-09T11:56:27.421Z,99.90
2019-05-09T11:58:55.268Z,99.90
2019-05-09T12:01:23.135Z,99.90
2019-05-09T12:03:52.457Z,99.90
2019-05-09T12:06:20.696Z,99.90
2019-05-09T12:08:48.830Z,99.90
2019-05-09T12:11:18.348Z,99.90
2019-05-09T12:13:48.724Z,99.90
2019-05-09T12:16:18.423Z,99.90
2019-05-09T12:18:48.512Z,99.90
2019-05-09T12:21:15.611Z,99.90
2019-05-09T12:23:44.178Z,99.90
2019-05-09T12:26:12.067Z,99.90
2019-05-09T12:28:40.172Z,99.90
2019-05-09T12:31:08.040Z,99.90
2019-05-09T12:33:35.927Z,99.90
2019-05-09T12:36:04.476Z,99.90
2019-05-09T12:38:32.295Z,99.90
2019-05-09T12:41:00.659Z,99.90
2019-05-09T12:43:28.595Z,99.90
2019-05-09T12:45:57.838Z,99.90
2019-05-09T12:48:27.963Z,99.90
2019-05-09T12:50:55.330Z,99.90
2019-05-09T12:53:23.544Z,99.90
2019-05-09T12:55:59.508Z,99.90
2019-05-09T12:58:27.970Z,99.90
2019-05-09T13:00:58.462Z,99.90
2019-05-09T13:03:27.639Z,99.90
2019-05-09T13:05:57.504Z,99.90
2019-05-09T13:08:27.643Z,99.90
2019-05-09T13:10:55.156Z,99.90
2019-05-09T13:13:23.026Z,99.90
2019-05-09T13:15:58.225Z,99.90
2019-05-09T13:18:45.451Z,99.90
2019-05-09T13:21:13.352Z,99.90
2019-05-09T13:23:41.308Z,99.90
2019-05-09T13:26:09.289Z,99.90
2019-05-09T13:28:37.766Z,99.90
2019-05-09T13:31:08.082Z,99.90
2019-05-09T13:33:35.269Z,99.90
2019-05-09T13:36:03.057Z,99.90
2019-05-09T13:38:30.878Z,99.90
2019-05-09T13:40:58.743Z,99.90
2019-05-09T13:43:28.168Z,99.90
2019-05-09T13:45:58.672Z,99.90
2019-05-09T13:48:37.864Z,99.90
2019-05-09T13:50:57.686Z,99.90
2019-05-09T13:53:24.979Z,99.90
2019-05-09T13:55:52.827Z,99.90
2019-05-09T13:58:20.709Z,99.10
2019-05-09T14:00:59.282Z,98.40
2019-05-09T14:03:18.249Z,97.40
2019-05-09T14:05:48.084Z,97.70
2019-05-09T14:08:18.223Z,97.00
2019-05-09T14:10:48.178Z,97.30
2019-05-09T14:13:14.997Z,97.20
2019-05-09T14:15:44.115Z,97.00
2019-05-09T14:18:12.235Z,97.40
2019-05-09T14:20:40.074Z,96.20
2019-05-09T14:23:11.412Z,94.90
2019-05-09T14:25:38.230Z,94.20
2019-05-09T14:28:08.348Z,93.80
2019-05-09T14:30:35.663Z,94.10
2019-05-09T14:33:03.517Z,94.20
2019-05-09T14:35:31.795Z,94.60
2019-05-09T14:38:00.035Z,94.40
2019-05-09T14:40:28.138Z,94.10
2019-05-09T14:42:57.791Z,94.00
2019-05-09T14:45:27.423Z,94.00
2019-05-09T14:47:58.784Z,94.20
2019-05-09T14:50:25.705Z,92.70
2019-05-09T14:52:53.476Z,91.90
2019-05-09T14:55:21.622Z,91.40
2019-05-09T14:57:49.692Z,91.00
2019-05-09T15:00:18.752Z,90.60
2019-05-09T15:02:48.889Z,90.60
2019-05-09T15:05:18.859Z,90.10
2019-05-09T15:07:47.606Z,90.30
2019-05-09T15:10:15.688Z,90.00
2019-05-09T15:12:43.647Z,89.00
2019-05-09T15:15:11.516Z,88.70
2019-05-09T15:17:39.377Z,87.10
2019-05-09T15:20:08.850Z,87.50
2019-05-09T15:22:38.639Z,87.80
2019-05-09T15:25:08.755Z,87.80
2019-05-09T15:27:38.485Z,88.20
2019-05-09T15:30:08.208Z,88.80
2019-05-09T15:32:37.736Z,88.90
2019-05-09T15:35:08.700Z,89.10
2019-05-09T15:37:38.284Z,87.80
2019-05-09T15:40:05.383Z,89.00
2019-05-09T15:42:33.282Z,89.20
2019-05-09T15:45:01.183Z,89.70
2019-05-09T15:47:34.034Z,90.10
2019-05-09T15:50:15.451Z,90.30
2019-05-09T15:52:31.694Z,90.70
2019-05-09T15:54:59.511Z,90.50
2019-05-09T15:57:27.640Z,90.70
2019-05-09T15:59:55.584Z,90.40
2019-05-09T16:02:23.668Z,90.20
2019-05-09T16:04:52.112Z,84.00
2019-05-09T16:07:20.097Z,81.10
2019-05-09T16:09:48.428Z,81.20
2019-05-09T16:12:18.433Z,78.60
2019-05-09T16:14:48.542Z,79.30
2019-05-09T16:17:18.851Z,79.20
2019-05-09T16:19:45.722Z,79.90
2019-05-09T16:22:13.622Z,80.40
2019-05-09T16:24:41.493Z,81.60
2019-05-09T16:27:09.419Z,82.80
2019-05-09T16:29:38.331Z,80.70
2019-05-09T16:32:08.611Z,88.90
2019-05-09T16:34:38.542Z,90.20
2019-05-09T16:37:07.658Z,90.20
2019-05-09T16:39:35.320Z,90.80
2019-05-09T16:42:03.119Z,91.30
2019-05-09T16:44:30.971Z,92.10
2019-05-09T16:46:58.870Z,92.10
2019-05-09T16:49:29.256Z,92.30
2019-05-09T16:51:58.179Z,93.40
2019-05-09T16:54:29.739Z,94.10
2019-05-09T16:56:59.958Z,95.00
2019-05-09T16:59:28.222Z,95.70
2019-05-09T17:01:57.818Z,96.00
2019-05-09T17:04:27.796Z,96.60
2019-05-09T17:06:57.697Z,95.70
2019-05-09T17:09:25.315Z,95.00
2019-05-09T17:11:53.199Z,94.00
2019-05-09T17:14:20.976Z,92.50
2019-05-09T17:16:52.546Z,92.40
2019-05-09T17:19:19.578Z,90.70
2019-05-09T17:21:59.593Z,85.80
2019-05-09T17:24:29.823Z,82.20
2019-05-09T17:26:57.972Z,82.40
2019-05-09T17:29:28.047Z,82.40
2019-05-09T17:31:58.193Z,82.30
2019-05-09T17:34:25.317Z,83.50
2019-05-09T17:36:53.161Z,82.80
2019-05-09T17:39:21.018Z,80.90
2019-05-09T17:41:49.184Z,80.90
2019-05-09T17:44:18.597Z,77.50
2019-05-09T17:46:48.045Z,74.60
2019-05-09T17:49:17.498Z,72.40
2019-05-09T17:51:45.508Z,71.80
2019-05-09T17:54:13.284Z,70.30
2019-05-09T17:56:41.617Z,69.30
2019-05-09T17:59:09.491Z,68.30
2019-05-09T18:01:37.366Z,66.90
2019-05-09T18:04:05.305Z,66.90
2019-05-09T18:06:33.484Z,68.90
2019-05-09T18:09:01.736Z,71.70
2019-05-09T18:11:29.548Z,75.00
2019-05-09T18:13:57.351Z,77.60
2019-05-09T18:16:28.303Z,81.00
2019-05-09T18:18:55.370Z,83.20
2019-05-09T18:21:23.150Z,85.50
2019-05-09T18:23:51.051Z,88.80
2019-05-09T18:26:18.979Z,91.20
2019-05-09T18:28:47.960Z,92.80
2019-05-09T18:31:15.895Z,94.90
2019-05-09T18:33:47.774Z,97.40
2019-05-09T18:36:15.975Z,99.60
2019-05-09T18:38:43.791Z,99.90
2019-05-09T18:41:11.639Z,99.90
2019-05-09T18:43:39.510Z,99.90
2019-05-09T18:46:08.397Z,99.90
2019-05-09T18:48:38.300Z,99.90
2019-05-09T18:51:06.291Z,99.90
2019-05-09T18:53:34.070Z,99.90
2019-05-09T18:56:02.208Z,99.90
2019-05-09T18:58:30.094Z,99.90
2019-05-09T19:00:57.943Z,99.90
2019-05-09T19:03:25.821Z,99.90
2019-05-09T19:05:53.683Z,99.90
2019-05-09T19:08:21.610Z,99.90
2019-05-09T19:10:52.147Z,99.90
2019-05-09T19:13:19.449Z,99.90
2019-05-09T19:15:58.299Z,99.90
2019-05-09T19:18:43.180Z,99.90
2019-05-09T19:21:23.890Z,99.90
2019-05-09T19:23:51.792Z,99.90
2019-05-09T19:26:38.506Z,99.90
2019-05-09T19:29:06.915Z,99.90
2019-05-09T19:31:34.743Z,99.90
2019-05-09T19:34:02.802Z,99.90
2019-05-09T19:36:30.672Z,99.90
2019-05-09T19:38:58.576Z,99.90
2019-05-09T19:41:26.396Z,99.90
2019-05-09T19:43:54.299Z,99.90
2019-05-09T19:46:22.130Z,99.90
2019-05-09T19:48:49.955Z,99.90
2019-05-09T19:51:17.788Z,99.90
2019-05-09T19:53:45.669Z,99.90
2019-05-09T19:56:13.811Z,99.90
2019-05-09T19:58:42.618Z,99.90
2019-05-09T20:01:10.461Z,99.90
2019-05-09T20:03:38.367Z,99.90
2019-05-09T20:06:06.215Z,99.90
2019-05-09T20:08:34.460Z,99.90
2019-05-09T20:11:13.147Z,99.90
2019-05-09T20:13:59.214Z,99.90
2019-05-09T20:16:29.487Z,99.90
2019-05-09T20:18:57.388Z,99.90
2019-05-09T20:21:25.270Z,99.90
2019-05-09T20:23:53.382Z,99.90
2019-05-09T20:26:21.220Z,99.90
2019-05-09T20:28:49.061Z,99.90
2019-05-09T20:31:16.970Z,99.90
2019-05-09T20:33:44.909Z,99.90
2019-05-09T20:36:12.734Z,99.90
2019-05-09T20:38:40.828Z,99.90
2019-05-09T20:41:08.939Z,99.90
2019-05-09T20:43:36.971Z,99.90
2019-05-09T20:46:05.411Z,99.90
2019-05-09T20:48:33.455Z,99.90
2019-05-09T20:51:01.500Z,99.90
2019-05-09T20:53:29.563Z,99.90
2019-05-09T20:55:57.643Z,99.90
2019-05-09T20:58:25.738Z,99.90
2019-05-09T21:00:53.793Z,99.90
2019-05-09T21:03:21.834Z,99.90
2019-05-09T21:05:49.848Z,99.90
2019-05-09T21:08:17.905Z,99.90
2019-05-09T21:10:45.923Z,99.90
2019-05-09T21:13:13.931Z,99.90
2019-05-09T21:15:42.036Z,99.90
2019-05-09T21:18:10.300Z,99.90
2019-05-09T21:20:39.010Z,99.90
2019-05-09T21:23:07.064Z,99.90
2019-05-09T21:25:35.049Z,99.90
2019-05-09T21:28:03.071Z,99.90
2019-05-09T21:30:31.070Z,99.90
2019-05-09T21:32:59.042Z,99.90
2019-05-09T21:35:26.924Z,99.90
2019-05-09T21:37:54.775Z,99.90
2019-05-09T21:40:22.716Z,99.90
2019-05-09T21:42:50.801Z,99.90
2019-05-09T21:45:18.775Z,99.90
2019-05-09T21:47:46.581Z,99.90
2019-05-09T21:50:14.590Z,99.90
2019-05-09T21:52:42.378Z,99.90
2019-05-09T21:55:10.247Z,99.90
2019-05-09T21:57:38.153Z,99.90
2019-05-09T22:00:07.702Z,99.90
2019-05-09T22:02:35.506Z,99.90
2019-05-09T22:05:03.711Z,99.90
2019-05-09T22:07:31.557Z,99.90
2019-05-09T22:09:59.410Z,99.90
2019-05-09T22:12:27.287Z,99.90
2019-05-09T22:14:55.124Z,99.90
2019-05-09T22:17:31.230Z,99.90
2019-05-09T22:19:59.172Z,99.90
2019-05-09T22:22:26.963Z,99.90
2019-05-09T22:24:54.747Z,99.90
2019-05-09T22:27:22.570Z,99.90
2019-05-09T22:29:50.503Z,99.90
2019-05-09T22:32:21.901Z,99.90
2019-05-09T22:34:48.028Z,99.90
2019-05-09T22:37:15.975Z,99.90
2019-05-09T22:39:43.835Z,99.90
2019-05-09T22:42:11.735Z,99.90
2019-05-09T22:44:39.591Z,99.90
2019-05-09T22:47:07.487Z,99.90
2019-05-09T22:49:35.317Z,99.90
2019-05-09T22:52:03.270Z,99.90
2019-05-09T22:54:31.214Z,99.90
2019-05-09T22:56:59.319Z,99.90
2019-05-09T22:59:27.182Z,99.90
2019-05-09T23:01:55.075Z,99.90
2019-05-09T23:04:22.922Z,99.90
2019-05-09T23:06:50.828Z,99.90
2019-05-09T23:09:18.960Z,99.90
2019-05-09T23:11:46.755Z,99.90
2019-05-09T23:14:14.708Z,99.90
2019-05-09T23:16:42.595Z,99.90
2019-05-09T23:19:10.431Z,99.90
2019-05-09T23:21:38.195Z,99.90
2019-05-09T23:24:07.951Z,99.90
2019-05-09T23:26:35.779Z,99.90
2019-05-09T23:29:03.892Z,99.90
2019-05-09T23:31:43.156Z,99.90
2019-05-09T23:34:10.980Z,99.90
2019-05-09T23:36:38.828Z,99.90
2019-05-09T23:39:22.042Z,99.90
2019-05-09T23:41:49.911Z,99.90
2019-05-09T23:44:17.993Z,99.90
2019-05-09T23:46:45.766Z,99.90
2019-05-09T23:49:13.653Z,99.90
2019-05-09T23:51:45.469Z,99.90
2019-05-09T23:54:45.457Z,99.90
2019-05-09T23:57:19.908Z,99.90
